sensor_id;sensor_type;location;lat;lon;timestamp;pressure;altitude;pressure_sealevel;temperature;humidity
61394;BME280;48555;50.952;-0.120;2024-03-08T00:02:24;100789.38;;;6.79;82.47
61394;BME280;48555;50.952;-0.120;2024-03-08T00:04:49;100778.25;;;6.77;82.47
61394;BME280;48555;50.952;-0.120;2024-03-08T00:07:15;100775.81;;;6.74;82.50
61394;BME280;48555;50.952;-0.120;2024-03-08T00:09:40;100780.06;;;6.75;82.47
61394;BME280;48555;50.952;-0.120;2024-03-08T00:12:06;100776.72;;;6.73;82.59
61394;BME280;48555;50.952;-0.120;2024-03-08T00:14:31;100775.22;;;6.69;82.69
61394;BME280;48555;50.952;-0.120;2024-03-08T00:16:57;100777.72;;;6.70;82.34
61394;BME280;48555;50.952;-0.120;2024-03-08T00:19:22;100772.03;;;6.64;82.43
61394;BME280;48555;50.952;-0.120;2024-03-08T00:21:47;100766.00;;;6.63;82.64
61394;BME280;48555;50.952;-0.120;2024-03-08T00:24:13;100773.84;;;6.62;82.92
61394;BME280;48555;50.952;-0.120;2024-03-08T00:26:39;100772.13;;;6.62;82.48
61394;BME280;48555;50.952;-0.120;2024-03-08T00:29:04;100755.00;;;6.58;82.41
61394;BME280;48555;50.952;-0.120;2024-03-08T00:31:30;100759.13;;;6.62;82.13
61394;BME280;48555;50.952;-0.120;2024-03-08T00:33:56;100756.00;;;6.55;82.38
61394;BME280;48555;50.952;-0.120;2024-03-08T00:36:22;100751.91;;;6.51;82.54
61394;BME280;48555;50.952;-0.120;2024-03-08T00:38:47;100745.88;;;6.51;82.56
61394;BME280;48555;50.952;-0.120;2024-03-08T00:41:13;100754.50;;;6.51;82.38
61394;BME280;48555;50.952;-0.120;2024-03-08T00:43:38;100740.75;;;6.49;82.53
61394;BME280;48555;50.952;-0.120;2024-03-08T00:46:04;100749.16;;;6.54;82.27
61394;BME280;48555;50.952;-0.120;2024-03-08T00:48:29;100747.22;;;6.58;82.17
61394;BME280;48555;50.952;-0.120;2024-03-08T00:50:56;100724.75;;;6.41;82.01
61394;BME280;48555;50.952;-0.120;2024-03-08T00:53:21;100746.88;;;6.48;81.93
61394;BME280;48555;50.952;-0.120;2024-03-08T00:55:46;100742.88;;;6.43;82.54
61394;BME280;48555;50.952;-0.120;2024-03-08T00:58:13;100743.69;;;6.43;82.40
61394;BME280;48555;50.952;-0.120;2024-03-08T01:00:38;100747.56;;;6.36;82.53
61394;BME280;48555;50.952;-0.120;2024-03-08T01:03:06;100725.84;;;6.37;82.58
61394;BME280;48555;50.952;-0.120;2024-03-08T01:05:32;100732.53;;;6.41;82.34
61394;BME280;48555;50.952;-0.120;2024-03-08T01:07:57;100730.88;;;6.40;82.12
61394;BME280;48555;50.952;-0.120;2024-03-08T01:10:22;100722.41;;;6.36;82.45
61394;BME280;48555;50.952;-0.120;2024-03-08T01:12:48;100723.19;;;6.39;82.16
61394;BME280;48555;50.952;-0.120;2024-03-08T01:15:15;100714.63;;;6.36;82.07
61394;BME280;48555;50.952;-0.120;2024-03-08T01:17:40;100710.94;;;6.25;82.60
61394;BME280;48555;50.952;-0.120;2024-03-08T01:20:07;100706.34;;;6.30;82.41
61394;BME280;48555;50.952;-0.120;2024-03-08T01:22:32;100708.16;;;6.28;82.40
61394;BME280;48555;50.952;-0.120;2024-03-08T01:24:58;100692.66;;;6.26;82.27
61394;BME280;48555;50.952;-0.120;2024-03-08T01:27:23;100692.75;;;6.25;82.21
61394;BME280;48555;50.952;-0.120;2024-03-08T01:29:50;100699.63;;;6.26;82.37
61394;BME280;48555;50.952;-0.120;2024-03-08T01:32:15;100685.81;;;6.25;82.37
61394;BME280;48555;50.952;-0.120;2024-03-08T01:34:41;100681.53;;;6.24;82.10
61394;BME280;48555;50.952;-0.120;2024-03-08T01:37:07;100688.41;;;6.25;82.10
61394;BME280;48555;50.952;-0.120;2024-03-08T01:39:32;100678.19;;;6.22;82.26
61394;BME280;48555;50.952;-0.120;2024-03-08T01:41:58;100673.91;;;6.21;82.24
61394;BME280;48555;50.952;-0.120;2024-03-08T01:44:23;100671.66;;;6.15;82.27
61394;BME280;48555;50.952;-0.120;2024-03-08T01:46:49;100670.72;;;6.16;82.37
61394;BME280;48555;50.952;-0.120;2024-03-08T01:49:17;100664.59;;;6.17;82.14
61394;BME280;48555;50.952;-0.120;2024-03-08T01:51:43;100669.06;;;6.15;82.33
61394;BME280;48555;50.952;-0.120;2024-03-08T01:54:09;100664.69;;;6.16;82.18
61394;BME280;48555;50.952;-0.120;2024-03-08T01:56:36;100660.50;;;6.13;82.42
61394;BME280;48555;50.952;-0.120;2024-03-08T01:59:03;100651.78;;;6.14;82.40
61394;BME280;48555;50.952;-0.120;2024-03-08T02:01:28;100646.69;;;6.12;82.50
61394;BME280;48555;50.952;-0.120;2024-03-08T02:03:54;100637.47;;;6.07;82.73
61394;BME280;48555;50.952;-0.120;2024-03-08T02:06:19;100625.50;;;6.04;82.76
61394;BME280;48555;50.952;-0.120;2024-03-08T02:08:45;100617.88;;;6.01;83.16
61394;BME280;48555;50.952;-0.120;2024-03-08T02:11:11;100617.06;;;6.01;83.72
61394;BME280;48555;50.952;-0.120;2024-03-08T02:13:37;100604.25;;;5.98;83.34
61394;BME280;48555;50.952;-0.120;2024-03-08T02:16:02;100603.31;;;5.99;84.08
61394;BME280;48555;50.952;-0.120;2024-03-08T02:18:30;100602.38;;;6.00;84.60
61394;BME280;48555;50.952;-0.120;2024-03-08T02:21:00;100607.84;;;5.95;85.01
61394;BME280;48555;50.952;-0.120;2024-03-08T02:23:26;100600.56;;;6.02;84.60
61394;BME280;48555;50.952;-0.120;2024-03-08T02:25:52;100600.66;;;6.00;85.00
61394;BME280;48555;50.952;-0.120;2024-03-08T02:28:19;100595.75;;;5.94;85.63
61394;BME280;48555;50.952;-0.120;2024-03-08T02:30:48;100587.97;;;5.94;85.65
61394;BME280;48555;50.952;-0.120;2024-03-08T02:33:15;100588.22;;;6.05;85.26
61394;BME280;48555;50.952;-0.120;2024-03-08T02:35:44;100580.44;;;6.05;85.21
61394;BME280;48555;50.952;-0.120;2024-03-08T02:38:16;100574.41;;;6.05;85.41
61394;BME280;48555;50.952;-0.120;2024-03-08T02:40:47;100581.72;;;5.98;85.78
61394;BME280;48555;50.952;-0.120;2024-03-08T02:43:13;100574.53;;;6.03;85.74
61394;BME280;48555;50.952;-0.120;2024-03-08T02:45:40;100572.16;;;5.99;86.11
61394;BME280;48555;50.952;-0.120;2024-03-08T02:48:07;100553.41;;;5.94;86.61
61394;BME280;48555;50.952;-0.120;2024-03-08T02:50:32;100550.66;;;5.97;86.66
61394;BME280;48555;50.952;-0.120;2024-03-08T02:53:00;100551.72;;;5.92;86.84
61394;BME280;48555;50.952;-0.120;2024-03-08T02:55:26;100551.66;;;5.94;87.11
61394;BME280;48555;50.952;-0.120;2024-03-08T02:57:52;100541.41;;;5.91;86.65
61394;BME280;48555;50.952;-0.120;2024-03-08T03:00:18;100541.84;;;5.99;86.58
61394;BME280;48555;50.952;-0.120;2024-03-08T03:02:44;100546.53;;;5.92;86.79
61394;BME280;48555;50.952;-0.120;2024-03-08T03:05:10;100535.94;;;5.97;86.49
61394;BME280;48555;50.952;-0.120;2024-03-08T03:07:36;100515.78;;;5.85;86.41
61394;BME280;48555;50.952;-0.120;2024-03-08T03:10:03;100523.50;;;5.86;86.70
61394;BME280;48555;50.952;-0.120;2024-03-08T03:12:29;100528.34;;;5.92;86.52
61394;BME280;48555;50.952;-0.120;2024-03-08T03:14:55;100535.25;;;5.94;86.60
61394;BME280;48555;50.952;-0.120;2024-03-08T03:17:22;100532.78;;;5.90;86.65
61394;BME280;48555;50.952;-0.120;2024-03-08T03:19:47;100527.88;;;5.86;87.03
61394;BME280;48555;50.952;-0.120;2024-03-08T03:22:13;100525.69;;;5.94;86.64
61394;BME280;48555;50.952;-0.120;2024-03-08T03:24:38;100523.41;;;5.88;86.92
61394;BME280;48555;50.952;-0.120;2024-03-08T03:27:04;100516.81;;;5.82;87.14
61394;BME280;48555;50.952;-0.120;2024-03-08T03:29:36;100514.06;;;5.85;86.96
61394;BME280;48555;50.952;-0.120;2024-03-08T03:32:02;100516.81;;;5.82;87.13
61394;BME280;48555;50.952;-0.120;2024-03-08T03:34:29;100516.91;;;5.81;87.61
61394;BME280;48555;50.952;-0.120;2024-03-08T03:36:54;100505.34;;;5.86;87.24
61394;BME280;48555;50.952;-0.120;2024-03-08T03:39:21;100503.00;;;5.82;87.63
61394;BME280;48555;50.952;-0.120;2024-03-08T03:41:48;100494.66;;;5.77;87.65
61394;BME280;48555;50.952;-0.120;2024-03-08T03:44:17;100501.41;;;5.79;87.75
61394;BME280;48555;50.952;-0.120;2024-03-08T03:46:43;100495.31;;;5.80;87.63
61394;BME280;48555;50.952;-0.120;2024-03-08T03:49:09;100473.22;;;5.73;87.38
61394;BME280;48555;50.952;-0.120;2024-03-08T03:51:34;100493.56;;;5.81;87.56
61394;BME280;48555;50.952;-0.120;2024-03-08T03:54:00;100494.78;;;5.89;86.75
61394;BME280;48555;50.952;-0.120;2024-03-08T03:56:26;100489.28;;;5.96;86.77
61394;BME280;48555;50.952;-0.120;2024-03-08T03:58:51;100477.75;;;5.85;86.73
61394;BME280;48555;50.952;-0.120;2024-03-08T04:01:17;100481.41;;;5.81;87.05
61394;BME280;48555;50.952;-0.120;2024-03-08T04:03:42;100472.69;;;5.82;87.14
61394;BME280;48555;50.952;-0.120;2024-03-08T04:06:08;100458.66;;;5.70;87.26
61394;BME280;48555;50.952;-0.120;2024-03-08T04:08:33;100461.94;;;5.74;87.39
61394;BME280;48555;50.952;-0.120;2024-03-08T04:11:00;100467.00;;;5.76;87.44
61394;BME280;48555;50.952;-0.120;2024-03-08T04:13:26;100455.16;;;5.72;87.35
61394;BME280;48555;50.952;-0.120;2024-03-08T04:15:51;100452.63;;;5.70;87.16
61394;BME280;48555;50.952;-0.120;2024-03-08T04:18:17;100462.75;;;5.75;86.69
61394;BME280;48555;50.952;-0.120;2024-03-08T04:20:43;100458.16;;;5.80;86.55
61394;BME280;48555;50.952;-0.120;2024-03-08T04:23:08;100454.81;;;5.78;86.34
61394;BME280;48555;50.952;-0.120;2024-03-08T04:25:34;100455.97;;;5.72;85.97
61394;BME280;48555;50.952;-0.120;2024-03-08T04:27:59;100447.25;;;5.73;86.02
61394;BME280;48555;50.952;-0.120;2024-03-08T04:30:24;100441.06;;;5.76;85.90
61394;BME280;48555;50.952;-0.120;2024-03-08T04:32:50;100434.16;;;5.60;85.80
61394;BME280;48555;50.952;-0.120;2024-03-08T04:35:16;100426.44;;;5.59;85.64
61394;BME280;48555;50.952;-0.120;2024-03-08T04:37:41;100425.19;;;5.66;85.46
61394;BME280;48555;50.952;-0.120;2024-03-08T04:40:07;100427.50;;;5.70;85.36
61394;BME280;48555;50.952;-0.120;2024-03-08T04:42:33;100429.28;;;5.70;84.91
61394;BME280;48555;50.952;-0.120;2024-03-08T04:44:58;100431.56;;;5.60;85.28
61394;BME280;48555;50.952;-0.120;2024-03-08T04:47:24;100424.25;;;5.67;84.88
61394;BME280;48555;50.952;-0.120;2024-03-08T04:49:50;100419.00;;;5.68;84.64
61394;BME280;48555;50.952;-0.120;2024-03-08T04:52:15;100413.22;;;5.63;84.79
61394;BME280;48555;50.952;-0.120;2024-03-08T04:54:41;100404.31;;;5.53;85.23
61394;BME280;48555;50.952;-0.120;2024-03-08T04:57:07;100403.38;;;5.54;84.97
61394;BME280;48555;50.952;-0.120;2024-03-08T04:59:32;100404.63;;;5.63;84.96
61394;BME280;48555;50.952;-0.120;2024-03-08T05:01:58;100401.44;;;5.58;84.91
61394;BME280;48555;50.952;-0.120;2024-03-08T05:04:23;100396.91;;;5.61;84.70
61394;BME280;48555;50.952;-0.120;2024-03-08T05:06:48;100398.38;;;5.51;84.83
61394;BME280;48555;50.952;-0.120;2024-03-08T05:09:14;100393.94;;;5.53;84.53
61394;BME280;48555;50.952;-0.120;2024-03-08T05:11:44;100401.72;;;5.53;84.52
61394;BME280;48555;50.952;-0.120;2024-03-08T05:14:10;100400.97;;;5.51;84.42
61394;BME280;48555;50.952;-0.120;2024-03-08T05:16:36;100380.69;;;5.58;84.03
61394;BME280;48555;50.952;-0.120;2024-03-08T05:19:04;100396.69;;;5.50;84.10
61394;BME280;48555;50.952;-0.120;2024-03-08T05:21:29;100385.63;;;5.46;84.23
61394;BME280;48555;50.952;-0.120;2024-03-08T05:23:55;100388.47;;;5.58;83.82
61394;BME280;48555;50.952;-0.120;2024-03-08T05:26:20;100375.28;;;5.46;83.91
61394;BME280;48555;50.952;-0.120;2024-03-08T05:28:47;100378.19;;;5.56;83.34
61394;BME280;48555;50.952;-0.120;2024-03-08T05:31:23;100375.78;;;5.53;83.44
61394;BME280;48555;50.952;-0.120;2024-03-08T05:33:49;100374.75;;;5.56;83.33
61394;BME280;48555;50.952;-0.120;2024-03-08T05:36:14;100370.06;;;5.46;83.62
61394;BME280;48555;50.952;-0.120;2024-03-08T05:38:42;100362.56;;;5.42;83.67
61394;BME280;48555;50.952;-0.120;2024-03-08T05:41:09;100355.63;;;5.42;83.79
61394;BME280;48555;50.952;-0.120;2024-03-08T05:43:34;100365.06;;;5.43;83.80
61394;BME280;48555;50.952;-0.120;2024-03-08T05:45:59;100356.72;;;5.38;83.47
61394;BME280;48555;50.952;-0.120;2024-03-08T05:48:25;100353.09;;;5.41;83.19
61394;BME280;48555;50.952;-0.120;2024-03-08T05:50:50;100351.44;;;5.40;83.05
61394;BME280;48555;50.952;-0.120;2024-03-08T05:53:15;100361.34;;;5.33;83.66
61394;BME280;48555;50.952;-0.120;2024-03-08T05:55:41;100354.63;;;5.29;83.35
61394;BME280;48555;50.952;-0.120;2024-03-08T05:58:06;100357.41;;;5.26;83.84
61394;BME280;48555;50.952;-0.120;2024-03-08T06:00:33;100340.59;;;5.17;84.03
61394;BME280;48555;50.952;-0.120;2024-03-08T06:02:59;100332.34;;;5.27;83.46
61394;BME280;48555;50.952;-0.120;2024-03-08T06:05:24;100354.97;;;5.39;83.36
61394;BME280;48555;50.952;-0.120;2024-03-08T06:07:49;100356.06;;;5.35;83.57
61394;BME280;48555;50.952;-0.120;2024-03-08T06:10:15;100346.78;;;5.31;83.96
61394;BME280;48555;50.952;-0.120;2024-03-08T06:12:42;100353.06;;;5.27;84.49
61394;BME280;48555;50.952;-0.120;2024-03-08T06:15:08;100351.22;;;5.29;84.52
61394;BME280;48555;50.952;-0.120;2024-03-08T06:17:35;100347.63;;;5.31;84.33
61394;BME280;48555;50.952;-0.120;2024-03-08T06:20:01;100341.59;;;5.31;84.57
61394;BME280;48555;50.952;-0.120;2024-03-08T06:22:26;100344.25;;;5.29;84.87
61394;BME280;48555;50.952;-0.120;2024-03-08T06:24:52;100346.84;;;5.29;84.87
61394;BME280;48555;50.952;-0.120;2024-03-08T06:27:19;100352.03;;;5.29;85.13
61394;BME280;48555;50.952;-0.120;2024-03-08T06:29:44;100354.63;;;5.29;85.18
61394;BME280;48555;50.952;-0.120;2024-03-08T06:32:10;100352.22;;;5.26;85.59
61394;BME280;48555;50.952;-0.120;2024-03-08T06:34:35;100353.63;;;5.32;85.25
61394;BME280;48555;50.952;-0.120;2024-03-08T06:37:01;100364.75;;;5.34;85.18
61394;BME280;48555;50.952;-0.120;2024-03-08T06:39:27;100358.91;;;5.30;85.19
61394;BME280;48555;50.952;-0.120;2024-03-08T06:41:53;100364.94;;;5.31;86.08
61394;BME280;48555;50.952;-0.120;2024-03-08T06:44:19;100356.16;;;5.33;85.99
61394;BME280;48555;50.952;-0.120;2024-03-08T06:46:47;100353.69;;;5.46;85.55
61394;BME280;48555;50.952;-0.120;2024-03-08T06:49:13;100353.09;;;5.57;85.41
61394;BME280;48555;50.952;-0.120;2024-03-08T06:51:38;100361.28;;;5.65;85.37
61394;BME280;48555;50.952;-0.120;2024-03-08T06:54:06;100351.84;;;5.78;84.86
61394;BME280;48555;50.952;-0.120;2024-03-08T06:56:34;100355.50;;;5.90;84.14
61394;BME280;48555;50.952;-0.120;2024-03-08T06:58:59;100353.59;;;6.08;83.75
61394;BME280;48555;50.952;-0.120;2024-03-08T07:01:25;100348.53;;;6.21;82.96
61394;BME280;48555;50.952;-0.120;2024-03-08T07:03:50;100361.50;;;6.35;82.41
61394;BME280;48555;50.952;-0.120;2024-03-08T07:06:18;100361.25;;;6.40;81.81
61394;BME280;48555;50.952;-0.120;2024-03-08T07:08:44;100344.91;;;6.37;81.75
61394;BME280;48555;50.952;-0.120;2024-03-08T07:11:11;100349.91;;;6.55;81.09
61394;BME280;48555;50.952;-0.120;2024-03-08T07:13:37;100359.47;;;6.83;80.15
61394;BME280;48555;50.952;-0.120;2024-03-08T07:16:04;100355.25;;;6.95;79.52
61394;BME280;48555;50.952;-0.120;2024-03-08T07:18:30;100348.28;;;7.22;78.38
61394;BME280;48555;50.952;-0.120;2024-03-08T07:20:56;100344.91;;;7.35;77.36
61394;BME280;48555;50.952;-0.120;2024-03-08T07:23:22;100345.59;;;7.51;76.73
61394;BME280;48555;50.952;-0.120;2024-03-08T07:26:06;100338.22;;;7.70;75.66
61394;BME280;48555;50.952;-0.120;2024-03-08T07:28:31;100335.88;;;7.93;74.72
61394;BME280;48555;50.952;-0.120;2024-03-08T07:31:00;100337.75;;;8.16;73.65
61394;BME280;48555;50.952;-0.120;2024-03-08T07:33:37;100337.66;;;8.31;72.44
61394;BME280;48555;50.952;-0.120;2024-03-08T07:36:03;100337.66;;;8.44;72.12
61394;BME280;48555;50.952;-0.120;2024-03-08T07:38:29;100336.41;;;8.49;71.31
61394;BME280;48555;50.952;-0.120;2024-03-08T07:40:54;100331.91;;;8.64;70.69
61394;BME280;48555;50.952;-0.120;2024-03-08T07:43:22;100336.88;;;8.80;69.98
61394;BME280;48555;50.952;-0.120;2024-03-08T07:45:48;100339.75;;;8.88;69.45
61394;BME280;48555;50.952;-0.120;2024-03-08T07:48:13;100329.41;;;8.99;69.27
61394;BME280;48555;50.952;-0.120;2024-03-08T07:50:40;100340.94;;;9.08;68.80
61394;BME280;48555;50.952;-0.120;2024-03-08T07:53:06;100304.78;;;9.03;68.33
61394;BME280;48555;50.952;-0.120;2024-03-08T07:55:32;100323.34;;;9.23;68.22
61394;BME280;48555;50.952;-0.120;2024-03-08T07:57:58;100316.53;;;9.33;67.40
61394;BME280;48555;50.952;-0.120;2024-03-08T08:00:23;100312.00;;;9.59;66.71
61394;BME280;48555;50.952;-0.120;2024-03-08T08:02:49;100310.31;;;9.58;66.09
61394;BME280;48555;50.952;-0.120;2024-03-08T08:05:15;100299.28;;;9.54;66.00
61394;BME280;48555;50.952;-0.120;2024-03-08T08:07:44;100311.59;;;9.76;65.73
61394;BME280;48555;50.952;-0.120;2024-03-08T08:10:09;100305.97;;;9.70;65.35
61394;BME280;48555;50.952;-0.120;2024-03-08T08:12:42;100306.50;;;9.86;64.48
61394;BME280;48555;50.952;-0.120;2024-03-08T08:15:07;100299.16;;;9.91;64.47
61394;BME280;48555;50.952;-0.120;2024-03-08T08:17:33;100298.91;;;10.06;64.09
61394;BME280;48555;50.952;-0.120;2024-03-08T08:20:00;100296.66;;;10.12;63.52
61394;BME280;48555;50.952;-0.120;2024-03-08T08:22:25;100281.22;;;10.20;62.95
61394;BME280;48555;50.952;-0.120;2024-03-08T08:24:50;100287.25;;;9.98;63.33
61394;BME280;48555;50.952;-0.120;2024-03-08T08:27:17;100273.97;;;10.13;63.31
61394;BME280;48555;50.952;-0.120;2024-03-08T08:29:42;100274.00;;;10.24;63.09
61394;BME280;48555;50.952;-0.120;2024-03-08T08:32:08;100264.50;;;10.34;63.02
61394;BME280;48555;50.952;-0.120;2024-03-08T08:34:35;100263.19;;;10.29;62.71
61394;BME280;48555;50.952;-0.120;2024-03-08T08:37:01;100264.38;;;10.36;62.03
61394;BME280;48555;50.952;-0.120;2024-03-08T08:39:26;100245.47;;;10.21;62.58
61394;BME280;48555;50.952;-0.120;2024-03-08T08:41:52;100247.84;;;10.13;62.10
61394;BME280;48555;50.952;-0.120;2024-03-08T08:44:18;100258.19;;;10.03;62.72
61394;BME280;48555;50.952;-0.120;2024-03-08T08:46:43;100242.53;;;10.03;62.81
61394;BME280;48555;50.952;-0.120;2024-03-08T08:49:09;100258.66;;;10.08;62.65
61394;BME280;48555;50.952;-0.120;2024-03-08T08:51:39;100249.03;;;9.86;63.70
61394;BME280;48555;50.952;-0.120;2024-03-08T08:54:05;100247.50;;;9.95;63.35
61394;BME280;48555;50.952;-0.120;2024-03-08T08:56:31;100244.66;;;9.98;63.27
61394;BME280;48555;50.952;-0.120;2024-03-08T08:58:57;100263.88;;;9.97;63.08
61394;BME280;48555;50.952;-0.120;2024-03-08T09:01:23;100238.22;;;9.80;63.59
61394;BME280;48555;50.952;-0.120;2024-03-08T09:03:48;100240.69;;;9.70;64.26
61394;BME280;48555;50.952;-0.120;2024-03-08T09:06:15;100241.63;;;9.58;64.60
61394;BME280;48555;50.952;-0.120;2024-03-08T09:08:42;100232.63;;;9.50;64.84
61394;BME280;48555;50.952;-0.120;2024-03-08T09:11:07;100224.09;;;9.60;64.84
61394;BME280;48555;50.952;-0.120;2024-03-08T09:13:33;100222.28;;;9.49;65.72
61394;BME280;48555;50.952;-0.120;2024-03-08T09:16:04;100217.81;;;9.62;64.94
61394;BME280;48555;50.952;-0.120;2024-03-08T09:18:33;100217.41;;;9.55;64.89
61394;BME280;48555;50.952;-0.120;2024-03-08T09:20:58;100205.09;;;9.58;64.65
61394;BME280;48555;50.952;-0.120;2024-03-08T09:23:25;100201.91;;;9.65;65.16
61394;BME280;48555;50.952;-0.120;2024-03-08T09:25:51;100199.50;;;9.73;64.65
61394;BME280;48555;50.952;-0.120;2024-03-08T09:28:17;100188.84;;;9.65;64.53
61394;BME280;48555;50.952;-0.120;2024-03-08T09:30:42;100189.56;;;9.56;65.30
61394;BME280;48555;50.952;-0.120;2024-03-08T09:33:08;100170.91;;;9.61;65.71
61394;BME280;48555;50.952;-0.120;2024-03-08T09:35:34;100180.31;;;9.74;64.96
61394;BME280;48555;50.952;-0.120;2024-03-08T09:38:00;100162.28;;;9.83;65.23
61394;BME280;48555;50.952;-0.120;2024-03-08T09:40:26;100167.47;;;9.94;63.95
61394;BME280;48555;50.952;-0.120;2024-03-08T09:42:52;100157.63;;;9.86;64.11
61394;BME280;48555;50.952;-0.120;2024-03-08T09:45:19;100147.44;;;9.94;64.66
61394;BME280;48555;50.952;-0.120;2024-03-08T09:47:47;100153.09;;;9.99;63.65
61394;BME280;48555;50.952;-0.120;2024-03-08T09:50:14;100140.06;;;9.88;63.77
61394;BME280;48555;50.952;-0.120;2024-03-08T09:52:40;100141.34;;;9.94;63.19
61394;BME280;48555;50.952;-0.120;2024-03-08T09:55:06;100156.78;;;9.97;63.63
61394;BME280;48555;50.952;-0.120;2024-03-08T09:57:36;100134.72;;;9.78;63.03
61394;BME280;48555;50.952;-0.120;2024-03-08T10:00:03;100130.69;;;9.86;63.11
61394;BME280;48555;50.952;-0.120;2024-03-08T10:02:34;100126.88;;;9.78;63.19
61394;BME280;48555;50.952;-0.120;2024-03-08T10:05:01;100115.00;;;9.97;62.66
61394;BME280;48555;50.952;-0.120;2024-03-08T10:07:28;100106.94;;;10.00;62.22
61394;BME280;48555;50.952;-0.120;2024-03-08T10:09:54;100099.78;;;10.02;62.11
61394;BME280;48555;50.952;-0.120;2024-03-08T10:12:19;100094.00;;;9.87;63.01
61394;BME280;48555;50.952;-0.120;2024-03-08T10:14:45;100085.81;;;9.92;62.66
61394;BME280;48555;50.952;-0.120;2024-03-08T10:17:11;100101.59;;;9.90;62.62
61394;BME280;48555;50.952;-0.120;2024-03-08T10:19:37;100087.63;;;9.80;63.19
61394;BME280;48555;50.952;-0.120;2024-03-08T10:22:02;100091.47;;;9.97;62.85
61394;BME280;48555;50.952;-0.120;2024-03-08T10:24:29;100076.75;;;10.07;63.07
61394;BME280;48555;50.952;-0.120;2024-03-08T10:27:02;100084.38;;;9.99;61.76
61394;BME280;48555;50.952;-0.120;2024-03-08T10:29:30;100086.25;;;9.97;62.42
61394;BME280;48555;50.952;-0.120;2024-03-08T10:31:56;100081.72;;;10.10;61.97
61394;BME280;48555;50.952;-0.120;2024-03-08T10:34:22;100057.16;;;10.13;61.83
61394;BME280;48555;50.952;-0.120;2024-03-08T10:36:50;100076.16;;;10.15;61.75
61394;BME280;48555;50.952;-0.120;2024-03-08T10:39:23;100060.66;;;10.23;60.42
61394;BME280;48555;50.952;-0.120;2024-03-08T10:41:55;100057.47;;;10.19;59.93
61394;BME280;48555;50.952;-0.120;2024-03-08T10:44:26;100051.53;;;10.29;59.71
61394;BME280;48555;50.952;-0.120;2024-03-08T10:47:02;100048.16;;;10.38;58.49
61394;BME280;48555;50.952;-0.120;2024-03-08T10:49:32;100048.38;;;10.46;57.91
61394;BME280;48555;50.952;-0.120;2024-03-08T10:52:05;100060.06;;;10.63;56.81
61394;BME280;48555;50.952;-0.120;2024-03-08T10:54:37;100039.44;;;10.69;55.40
61394;BME280;48555;50.952;-0.120;2024-03-08T10:57:06;100042.94;;;10.59;55.93
61394;BME280;48555;50.952;-0.120;2024-03-08T10:59:34;100025.91;;;10.64;55.78
61394;BME280;48555;50.952;-0.120;2024-03-08T11:02:00;100032.50;;;10.80;54.58
61394;BME280;48555;50.952;-0.120;2024-03-08T11:04:25;100017.00;;;10.67;55.96
61394;BME280;48555;50.952;-0.120;2024-03-08T11:06:52;100033.69;;;10.76;54.47
61394;BME280;48555;50.952;-0.120;2024-03-08T11:09:31;100026.31;;;10.81;54.23
61394;BME280;48555;50.952;-0.120;2024-03-08T11:14:48;100010.47;;;10.82;54.58
61394;BME280;48555;50.952;-0.120;2024-03-08T11:17:16;100005.34;;;11.02;53.15
61394;BME280;48555;50.952;-0.120;2024-03-08T11:19:47;100014.94;;;11.22;53.18
61394;BME280;48555;50.952;-0.120;2024-03-08T11:22:26;100011.53;;;11.41;51.10
61394;BME280;48555;50.952;-0.120;2024-03-08T11:24:53;100008.38;;;11.37;51.25
61394;BME280;48555;50.952;-0.120;2024-03-08T11:27:18;99998.88;;;11.36;52.07
61394;BME280;48555;50.952;-0.120;2024-03-08T11:29:59;99998.91;;;11.46;51.19
61394;BME280;48555;50.952;-0.120;2024-03-08T11:32:27;99998.59;;;11.40;51.13
61394;BME280;48555;50.952;-0.120;2024-03-08T11:34:54;99984.88;;;11.57;50.48
61394;BME280;48555;50.952;-0.120;2024-03-08T11:37:21;99996.25;;;11.36;50.04
61394;BME280;48555;50.952;-0.120;2024-03-08T11:39:54;99992.56;;;11.39;50.66
61394;BME280;48555;50.952;-0.120;2024-03-08T11:42:24;99971.06;;;11.35;50.86
61394;BME280;48555;50.952;-0.120;2024-03-08T11:44:51;99979.75;;;11.46;50.47
61394;BME280;48555;50.952;-0.120;2024-03-08T11:47:18;99988.59;;;11.54;49.41
61394;BME280;48555;50.952;-0.120;2024-03-08T11:49:43;99987.47;;;11.47;49.04
61394;BME280;48555;50.952;-0.120;2024-03-08T11:52:14;99979.47;;;11.49;49.99
61394;BME280;48555;50.952;-0.120;2024-03-08T11:54:41;99976.56;;;11.32;50.09
61394;BME280;48555;50.952;-0.120;2024-03-08T11:57:06;99968.13;;;11.29;50.00
61394;BME280;48555;50.952;-0.120;2024-03-08T11:59:32;99982.19;;;11.37;50.02
61394;BME280;48555;50.952;-0.120;2024-03-08T12:01:59;99973.84;;;11.53;49.72
61394;BME280;48555;50.952;-0.120;2024-03-08T12:04:27;99988.59;;;11.64;49.57
61394;BME280;48555;50.952;-0.120;2024-03-08T12:06:53;99964.63;;;11.69;49.22
61394;BME280;48555;50.952;-0.120;2024-03-08T12:09:18;99963.00;;;11.68;49.08
61394;BME280;48555;50.952;-0.120;2024-03-08T12:11:47;99966.69;;;11.65;49.75
61394;BME280;48555;50.952;-0.120;2024-03-08T12:14:12;99972.22;;;11.81;49.17
61394;BME280;48555;50.952;-0.120;2024-03-08T12:16:38;99970.41;;;11.72;48.92
61394;BME280;48555;50.952;-0.120;2024-03-08T12:19:03;99938.84;;;11.54;49.33
61394;BME280;48555;50.952;-0.120;2024-03-08T12:21:31;99956.34;;;11.73;48.84
61394;BME280;48555;50.952;-0.120;2024-03-08T12:24:07;99948.75;;;11.70;48.98
61394;BME280;48555;50.952;-0.120;2024-03-08T12:26:39;99961.75;;;11.81;48.66
61394;BME280;48555;50.952;-0.120;2024-03-08T12:29:24;99936.91;;;11.76;48.96
61394;BME280;48555;50.952;-0.120;2024-03-08T12:31:55;99932.34;;;11.58;49.68
61394;BME280;48555;50.952;-0.120;2024-03-08T12:34:23;99955.84;;;11.79;48.33
61394;BME280;48555;50.952;-0.120;2024-03-08T12:36:50;99946.44;;;11.77;47.97
61394;BME280;48555;50.952;-0.120;2024-03-08T12:39:19;99940.34;;;11.67;49.35
61394;BME280;48555;50.952;-0.120;2024-03-08T12:41:55;99931.94;;;11.73;48.83
61394;BME280;48555;50.952;-0.120;2024-03-08T12:44:22;99916.78;;;11.76;48.62
61394;BME280;48555;50.952;-0.120;2024-03-08T12:46:48;99929.88;;;11.76;49.10
61394;BME280;48555;50.952;-0.120;2024-03-08T12:49:14;99913.78;;;11.91;48.01